KSDM

Brown Field Municipal Airport

San Diego, California, USA
METAR KSDM 212153Z 26008KT 10SM CLR 22/15 A2993 RMK AO2 SLP132 T02220150
Observed Flight Rules
Jun-21 @ 21:53 UTC (12 minutes ago) Visual Flight Rules
Wind Visibility Clouds
260° at 8 knots 10 miles
  • Clear skies
Temperatures Readings
Current 22°C / 72°F
Dewpoint 15°C / 59°F
Humidity 65%
Altimeter 29.93" Hg
Pressure 1013.2 hPa
Elevation 159
METAR KSDM 212153Z 26008KT 10SM CLR 22/15 A2993 RMK AO2 SLP132 T02220150
Observed Flight Rules
Jun-21 @ 21:53 UTC
(12 minutes ago)
VFR
Wind Visibility
260° at 8 knots 10 miles
Clouds
  • Clear skies
Temperature Dewpoint
22°C / 72°F 15°C / 59°F
Humidity Altimeter Pressure
65% 29.93" Hg 1013.2 hPa